createdAt,value
2023-02-22T00:00:45.694Z,45.77
2023-02-22T00:01:45.702Z,43.91
2023-02-22T00:02:45.742Z,47.18
2023-02-22T00:03:45.663Z,50.69
2023-02-22T00:04:45.679Z,52.62
2023-02-22T00:05:45.633Z,57.73
2023-02-22T00:06:45.629Z,51.74
2023-02-22T00:07:45.653Z,57.53
2023-02-22T00:08:45.617Z,48.82
2023-02-22T00:09:45.598Z,47.82
2023-02-22T00:10:45.624Z,50.43
2023-02-22T00:11:45.584Z,49.97
2023-02-22T00:12:45.566Z,47.76
2023-02-22T00:13:45.575Z,47.17
2023-02-22T00:14:45.551Z,48.72
2023-02-22T00:15:45.556Z,53.82
2023-02-22T00:16:45.521Z,54.09
2023-02-22T00:17:45.534Z,55.11
2023-02-22T00:18:45.515Z,54.67
2023-02-22T00:19:45.511Z,52.79
2023-02-22T00:20:45.516Z,50.14
2023-02-22T00:21:45.491Z,51.95
2023-02-22T00:22:46.480Z,58.23
2023-02-22T00:23:45.473Z,52.90
2023-02-22T00:24:45.511Z,51.34
2023-02-22T00:25:45.446Z,47.45
2023-02-22T00:26:45.429Z,47.46
2023-02-22T00:27:45.437Z,55.81
2023-02-22T00:28:45.418Z,45.21
2023-02-22T00:29:46.446Z,47.36
2023-02-22T00:30:45.418Z,47.17
2023-02-22T00:31:45.530Z,50.77
2023-02-22T00:32:45.438Z,63.90
2023-02-22T00:33:45.365Z,49.34
2023-02-22T00:34:46.353Z,57.10
2023-02-22T00:35:45.346Z,57.76
2023-02-22T00:36:45.358Z,50.23
2023-02-22T00:37:45.327Z,49.37
2023-02-22T00:38:45.308Z,51.66
2023-02-22T00:39:45.316Z,55.22
2023-02-22T00:40:45.327Z,65.44
2023-02-22T00:41:45.346Z,47.18
2023-02-22T00:42:45.294Z,62.45
2023-02-22T00:43:45.264Z,49.45
2023-02-22T00:44:45.273Z,52.74
2023-02-22T00:45:45.319Z,46.16
2023-02-22T00:46:45.233Z,45.87
2023-02-22T00:47:45.244Z,44.47
2023-02-22T00:48:45.210Z,45.80
2023-02-22T00:49:45.193Z,45.83
2023-02-22T00:50:45.233Z,48.86
2023-02-22T00:51:45.218Z,48.85
2023-02-22T00:52:45.199Z,53.67
2023-02-22T00:53:45.198Z,46.26
2023-02-22T00:54:45.191Z,46.22
2023-02-22T00:55:45.190Z,49.74
2023-02-22T00:56:45.139Z,43.57
2023-02-22T00:57:45.134Z,46.84
2023-02-22T00:58:45.147Z,60.57
2023-02-22T00:59:45.112Z,47.00
2023-02-22T01:00:45.117Z,50.84
2023-02-22T01:01:45.116Z,49.36
2023-02-22T01:02:45.108Z,44.95
2023-02-22T01:03:45.067Z,51.37
2023-02-22T01:04:45.066Z,64.70
2023-02-22T01:05:45.081Z,48.38
2023-02-22T01:06:45.055Z,51.38
2023-02-22T01:07:45.028Z,55.68
2023-02-22T01:08:45.022Z,55.49
2023-02-22T01:09:45.044Z,52.05
2023-02-22T01:10:45.004Z,50.89
2023-02-22T01:11:44.996Z,51.27
2023-02-22T01:12:44.981Z,47.52
2023-02-22T01:13:44.997Z,51.40
2023-02-22T01:14:44.978Z,53.41
2023-02-22T01:15:45.049Z,47.57
2023-02-22T01:16:44.979Z,50.53
2023-02-22T01:17:44.927Z,44.06
2023-02-22T01:18:44.926Z,44.38
2023-02-22T01:19:44.916Z,48.52
2023-02-22T01:20:44.928Z,50.90
2023-02-22T01:21:44.892Z,47.33
2023-02-22T01:22:44.882Z,44.81
2023-02-22T01:23:44.861Z,45.03
2023-02-22T01:24:45.860Z,63.18
2023-02-22T01:25:44.863Z,48.03
2023-02-22T01:26:44.912Z,47.67
2023-02-22T01:27:44.844Z,53.31
2023-02-22T01:28:44.835Z,46.22
2023-02-22T01:29:44.824Z,50.78
2023-02-22T01:30:44.917Z,46.43
2023-02-22T01:31:44.810Z,61.72
2023-02-22T01:32:44.787Z,44.10
2023-02-22T01:33:44.789Z,52.77
2023-02-22T01:34:44.760Z,58.09
2023-02-22T01:35:44.784Z,50.73
2023-02-22T01:36:44.736Z,60.14
2023-02-22T01:37:44.724Z,52.72
2023-02-22T01:38:44.740Z,48.82
2023-02-22T01:39:44.725Z,49.00
2023-02-22T01:40:44.697Z,51.20
2023-02-22T01:41:44.705Z,54.85
2023-02-22T01:42:44.678Z,52.65
2023-02-22T01:43:44.712Z,48.33
2023-02-22T01:44:44.652Z,66.16
2023-02-22T01:45:44.701Z,51.15
2023-02-22T01:46:44.662Z,52.49
2023-02-22T01:47:44.625Z,51.51
2023-02-22T01:48:44.635Z,47.11
2023-02-22T01:49:44.612Z,50.95
2023-02-22T01:50:44.643Z,51.12
2023-02-22T01:51:44.604Z,49.04
2023-02-22T01:52:44.570Z,49.97
2023-02-22T01:53:44.569Z,47.92
2023-02-22T01:54:44.577Z,49.80
2023-02-22T01:55:44.588Z,59.68
2023-02-22T01:56:44.549Z,54.02
2023-02-22T01:57:44.541Z,61.38
2023-02-22T01:58:44.543Z,59.76
2023-02-22T01:59:44.531Z,55.44
2023-02-22T02:00:44.505Z,62.13
2023-02-22T02:01:44.499Z,57.26
2023-02-22T02:02:44.479Z,52.23
2023-02-22T02:03:44.492Z,46.76
2023-02-22T02:04:44.472Z,46.20
2023-02-22T02:05:44.439Z,45.36
2023-02-22T02:06:44.460Z,48.77
2023-02-22T02:07:44.439Z,47.58
2023-02-22T02:08:44.416Z,50.39
2023-02-22T02:09:44.410Z,62.47
2023-02-22T02:10:44.413Z,54.02
2023-02-22T02:11:44.405Z,50.61
2023-02-22T02:12:44.431Z,50.24
2023-02-22T02:13:44.375Z,66.86
2023-02-22T02:14:44.345Z,51.74
2023-02-22T02:15:44.365Z,50.06
2023-02-22T02:16:44.389Z,48.04
2023-02-22T02:17:44.334Z,60.03
2023-02-22T02:18:44.365Z,49.12
2023-02-22T02:19:44.370Z,50.60
2023-02-22T02:20:44.311Z,46.22
2023-02-22T02:21:44.292Z,46.68
2023-02-22T02:22:44.293Z,51.58
2023-02-22T02:23:44.264Z,52.08
2023-02-22T02:24:44.311Z,57.23
2023-02-22T02:25:44.258Z,48.47
2023-02-22T02:26:44.278Z,47.44
2023-02-22T02:27:44.455Z,52.51
2023-02-22T02:28:45.205Z,50.49
2023-02-22T02:29:44.237Z,50.49
2023-02-22T02:30:44.193Z,47.98
2023-02-22T02:31:44.328Z,60.78
2023-02-22T02:32:44.292Z,50.76
2023-02-22T02:33:44.162Z,45.74
2023-02-22T02:34:44.172Z,52.42
2023-02-22T02:35:44.152Z,48.19
2023-02-22T02:36:44.178Z,56.23
2023-02-22T02:37:44.135Z,50.32
2023-02-22T02:38:44.166Z,51.75
2023-02-22T02:39:44.102Z,45.45
2023-02-22T02:40:44.132Z,49.68
2023-02-22T02:41:44.124Z,50.62
2023-02-22T02:42:44.095Z,49.48
2023-02-22T02:43:44.070Z,49.86
2023-02-22T02:44:44.064Z,49.61
2023-02-22T02:45:44.081Z,46.89
2023-02-22T02:46:44.035Z,45.79
2023-02-22T02:47:44.034Z,47.13
2023-02-22T02:48:44.039Z,62.66
2023-02-22T02:49:44.014Z,44.77
2023-02-22T02:50:44.035Z,46.77
2023-02-22T02:51:44.000Z,44.44
2023-02-22T02:52:44.019Z,44.91
2023-02-22T02:53:43.960Z,45.22
2023-02-22T02:54:43.973Z,43.21
2023-02-22T02:55:43.946Z,48.32
2023-02-22T02:56:43.962Z,46.46
2023-02-22T02:57:43.949Z,45.84
2023-02-22T02:58:43.926Z,45.70
2023-02-22T02:59:43.917Z,48.76
2023-02-22T03:00:43.912Z,54.00
2023-02-22T03:01:43.931Z,49.36
2023-02-22T03:02:43.883Z,48.64
2023-02-22T03:03:43.869Z,51.25
2023-02-22T03:04:43.863Z,58.70
2023-02-22T03:05:43.882Z,50.03
2023-02-22T03:06:43.836Z,45.84
2023-02-22T03:07:43.891Z,47.54
2023-02-22T03:08:43.875Z,52.83
2023-02-22T03:09:43.823Z,51.01
2023-02-22T03:10:43.794Z,61.44
2023-02-22T03:11:44.828Z,47.39
2023-02-22T03:12:43.819Z,49.14
2023-02-22T03:13:43.795Z,55.10
2023-02-22T03:14:43.763Z,52.91
2023-02-22T03:15:43.758Z,58.64
2023-02-22T03:16:43.834Z,48.45
2023-02-22T03:17:43.763Z,50.42
2023-02-22T03:18:43.745Z,52.05
2023-02-22T03:19:43.741Z,46.21
2023-02-22T03:20:43.703Z,46.65
2023-02-22T03:21:43.735Z,49.83
2023-02-22T03:22:43.691Z,55.52
2023-02-22T03:23:43.678Z,62.07
2023-02-22T03:24:43.696Z,53.35
2023-02-22T03:25:43.666Z,59.66
2023-02-22T03:26:43.657Z,54.98
2023-02-22T03:27:43.837Z,55.83
2023-02-22T03:28:43.632Z,52.49
2023-02-22T03:29:43.671Z,50.11
2023-02-22T03:30:43.613Z,47.58
2023-02-22T03:31:43.606Z,49.11
2023-02-22T03:32:43.584Z,50.98
2023-02-22T03:33:43.593Z,47.76
2023-02-22T03:34:43.577Z,49.71
2023-02-22T03:35:43.577Z,54.39
2023-02-22T03:36:43.566Z,53.61
2023-02-22T03:37:43.545Z,48.46
2023-02-22T03:38:43.561Z,48.04
2023-02-22T03:39:43.539Z,60.58
2023-02-22T03:40:43.552Z,48.41
2023-02-22T03:41:43.522Z,49.50
2023-02-22T03:42:43.486Z,49.89
2023-02-22T03:43:43.467Z,53.99
2023-02-22T03:44:43.465Z,65.14
2023-02-22T03:45:43.532Z,50.60
2023-02-22T03:46:43.450Z,52.91
2023-02-22T03:47:43.465Z,55.26
2023-02-22T03:48:44.425Z,56.11
2023-02-22T03:49:43.430Z,63.96
2023-02-22T03:50:43.433Z,51.92
2023-02-22T03:51:43.471Z,60.52
2023-02-22T03:52:43.395Z,48.62
2023-02-22T03:53:43.383Z,49.49
2023-02-22T03:54:52.438Z,50.63
2023-02-22T03:55:43.352Z,52.15
2023-02-22T03:56:43.339Z,58.72
2023-02-22T03:57:43.343Z,56.85
2023-02-22T03:58:43.325Z,52.74
2023-02-22T03:59:43.309Z,52.59
2023-02-22T04:00:43.298Z,64.07
2023-02-22T04:01:43.289Z,53.30
2023-02-22T04:02:43.342Z,54.28
2023-02-22T04:03:43.251Z,52.77
2023-02-22T04:04:43.298Z,52.30
2023-02-22T04:05:43.272Z,51.91
2023-02-22T04:06:43.246Z,53.99
2023-02-22T04:07:43.262Z,52.71
2023-02-22T04:08:43.219Z,53.58
2023-02-22T04:09:43.198Z,60.01
2023-02-22T04:10:43.194Z,60.51
2023-02-22T04:11:43.186Z,59.69
2023-02-22T04:12:43.177Z,52.73
2023-02-22T04:13:43.192Z,58.81
2023-02-22T04:14:43.158Z,57.20
2023-02-22T04:15:43.197Z,53.06
2023-02-22T04:16:43.163Z,56.31
2023-02-22T04:17:43.128Z,65.03
2023-02-22T04:18:43.130Z,55.67
2023-02-22T04:19:43.121Z,57.16
2023-02-22T04:20:43.118Z,54.94
2023-02-22T04:21:43.089Z,54.08
2023-02-22T04:22:43.082Z,53.70
2023-02-22T04:23:43.073Z,55.39
2023-02-22T04:24:43.076Z,54.77
2023-02-22T04:25:43.074Z,55.89
2023-02-22T04:26:43.050Z,63.08
2023-02-22T04:27:43.026Z,58.63
2023-02-22T04:28:43.022Z,57.89
2023-02-22T04:29:43.010Z,55.63
2023-02-22T04:30:43.035Z,60.72
2023-02-22T04:31:43.077Z,60.94
2023-02-22T04:32:42.973Z,57.22
2023-02-22T04:33:42.984Z,56.56
2023-02-22T04:34:42.961Z,56.84
2023-02-22T04:35:42.942Z,57.65
2023-02-22T04:36:42.958Z,59.35
2023-02-22T04:37:42.924Z,62.54
2023-02-22T04:38:42.918Z,55.99
2023-02-22T04:39:42.944Z,60.15
2023-02-22T04:40:42.911Z,60.50
2023-02-22T04:41:42.912Z,54.75
2023-02-22T04:42:42.883Z,56.44
2023-02-22T04:43:42.868Z,64.51
2023-02-22T04:44:42.870Z,65.84
2023-02-22T04:45:42.852Z,58.20
2023-02-22T04:46:42.901Z,58.03
2023-02-22T04:47:42.827Z,63.25
2023-02-22T04:48:42.816Z,61.10
2023-02-22T04:49:42.813Z,63.16
2023-02-22T04:50:42.814Z,55.83
2023-02-22T04:51:42.812Z,53.25
2023-02-22T04:52:42.815Z,59.44
2023-02-22T04:53:42.778Z,66.99
2023-02-22T04:54:42.760Z,56.30
2023-02-22T04:55:42.753Z,64.87
2023-02-22T04:56:42.786Z,54.22
2023-02-22T04:57:42.734Z,56.18
2023-02-22T04:58:42.765Z,55.30
2023-02-22T04:59:42.706Z,65.21
2023-02-22T05:00:42.698Z,56.72
2023-02-22T05:01:42.693Z,55.37
2023-02-22T05:02:42.741Z,64.25
2023-02-22T05:03:42.670Z,57.76
2023-02-22T05:04:42.782Z,56.81
2023-02-22T05:05:42.663Z,55.30
2023-02-22T05:06:42.635Z,62.85
2023-02-22T05:07:42.657Z,56.39
2023-02-22T05:08:42.647Z,59.79
2023-02-22T05:09:42.612Z,55.36
2023-02-22T05:10:42.593Z,56.40
2023-02-22T05:11:42.595Z,58.13
2023-02-22T05:12:42.657Z,56.88
2023-02-22T05:13:42.568Z,56.27
2023-02-22T05:14:42.561Z,57.06
2023-02-22T05:15:42.594Z,59.21
2023-02-22T05:16:42.548Z,59.07
2023-02-22T05:17:42.525Z,58.37
2023-02-22T05:18:42.535Z,59.33
2023-02-22T05:19:42.514Z,59.45
2023-02-22T05:20:42.505Z,56.91
2023-02-22T05:21:42.481Z,57.97
2023-02-22T05:22:43.499Z,55.80
2023-02-22T05:23:43.486Z,59.35
2023-02-22T05:24:42.466Z,57.81
2023-02-22T05:25:42.453Z,65.60
2023-02-22T05:26:42.450Z,60.97
2023-02-22T05:27:42.429Z,57.53
2023-02-22T05:28:42.429Z,56.90
2023-02-22T05:29:43.420Z,57.19
2023-02-22T05:30:42.467Z,56.47
2023-02-22T05:31:42.583Z,56.23
2023-02-22T05:32:42.386Z,56.46
2023-02-22T05:33:42.379Z,57.45
2023-02-22T05:34:42.385Z,58.11
2023-02-22T05:35:42.359Z,59.90
2023-02-22T05:36:42.341Z,59.74
2023-02-22T05:37:42.332Z,57.99
2023-02-22T05:38:43.411Z,59.81
2023-02-22T05:39:42.326Z,63.49
2023-02-22T05:40:42.296Z,61.15
2023-02-22T05:41:42.299Z,59.82
2023-02-22T05:42:42.292Z,65.39
2023-02-22T05:43:42.297Z,59.76
2023-02-22T05:44:42.277Z,60.44
2023-02-22T05:45:42.264Z,58.82
2023-02-22T05:46:42.279Z,65.94
2023-02-22T05:47:42.254Z,62.86
2023-02-22T05:48:42.241Z,64.34
2023-02-22T05:49:42.222Z,60.27
2023-02-22T05:50:42.218Z,59.48
2023-02-22T05:51:42.200Z,59.82
2023-02-22T05:52:42.204Z,59.00
2023-02-22T05:53:42.199Z,61.32
2023-02-22T05:54:42.181Z,57.42
2023-02-22T05:55:42.166Z,56.92
2023-02-22T05:56:42.148Z,59.69
2023-02-22T05:57:42.180Z,57.53
2023-02-22T05:58:42.122Z,60.21
2023-02-22T05:59:42.116Z,58.16
2023-02-22T06:00:42.095Z,60.00
2023-02-22T06:01:42.142Z,60.39
2023-02-22T06:02:42.105Z,59.79
2023-02-22T06:03:42.088Z,59.35
2023-02-22T06:04:42.068Z,58.25
2023-02-22T06:05:42.143Z,61.16
2023-02-22T06:06:42.044Z,63.73
2023-02-22T06:07:42.032Z,65.55
2023-02-22T06:08:42.026Z,65.29
2023-02-22T06:09:42.011Z,61.00
2023-02-22T06:10:42.038Z,60.75
2023-02-22T06:11:42.015Z,60.74
2023-02-22T06:12:42.008Z,59.97
2023-02-22T06:13:41.970Z,60.56
2023-02-22T06:14:41.960Z,61.01
2023-02-22T06:15:42.002Z,61.82
2023-02-22T06:16:41.947Z,59.95
2023-02-22T06:17:41.951Z,59.58
2023-02-22T06:18:41.911Z,59.82
2023-02-22T06:19:41.929Z,59.40
2023-02-22T06:20:41.905Z,60.27
2023-02-22T06:21:41.906Z,61.22
2023-02-22T06:22:41.867Z,64.49
2023-02-22T06:23:42.917Z,66.55
2023-02-22T06:24:41.861Z,59.19
2023-02-22T06:25:41.859Z,59.75
2023-02-22T06:26:41.861Z,61.18
2023-02-22T06:27:41.826Z,61.12
2023-02-22T06:28:41.820Z,67.61
2023-02-22T06:29:41.816Z,61.61
2023-02-22T06:30:41.887Z,58.75
2023-02-22T06:31:41.999Z,59.11
2023-02-22T06:32:41.801Z,58.94
2023-02-22T06:33:41.769Z,61.57
2023-02-22T06:34:41.764Z,61.11
2023-02-22T06:35:41.753Z,58.29
2023-02-22T06:36:41.751Z,58.84
2023-02-22T06:37:41.743Z,67.46
2023-02-22T06:38:41.717Z,61.22
2023-02-22T06:39:41.722Z,60.98
2023-02-22T06:40:41.696Z,62.08
2023-02-22T06:41:41.693Z,65.71
2023-02-22T06:42:41.677Z,60.33
2023-02-22T06:43:41.694Z,59.69
2023-02-22T06:44:41.670Z,60.53
2023-02-22T06:45:41.696Z,59.49
2023-02-22T06:46:41.653Z,59.91
2023-02-22T06:47:41.634Z,59.58
2023-02-22T06:48:41.654Z,60.59
2023-02-22T06:49:41.610Z,59.11
2023-02-22T06:50:41.600Z,58.52
2023-02-22T06:51:41.595Z,59.59
2023-02-22T06:52:41.582Z,67.10
2023-02-22T06:53:41.595Z,59.57
2023-02-22T06:54:41.570Z,59.50
2023-02-22T06:55:41.556Z,59.86
2023-02-22T06:56:41.550Z,65.18
2023-02-22T06:57:41.523Z,60.84
2023-02-22T06:58:41.516Z,59.95
2023-02-22T06:59:41.521Z,65.90
2023-02-22T07:00:41.582Z,59.54
2023-02-22T07:01:41.499Z,61.03
2023-02-22T07:02:41.477Z,59.33
2023-02-22T07:03:41.524Z,58.96
2023-02-22T07:04:43.464Z,66.01
2023-02-22T07:05:42.453Z,59.47
2023-02-22T07:06:41.443Z,62.43
2023-02-22T07:07:41.433Z,62.81
2023-02-22T07:08:41.419Z,58.01
2023-02-22T07:09:41.408Z,56.22
2023-02-22T07:10:41.427Z,61.58
2023-02-22T07:11:41.404Z,63.90
2023-02-22T07:12:41.388Z,59.34
2023-02-22T07:13:41.372Z,59.29
2023-02-22T07:14:41.385Z,60.10
2023-02-22T07:15:41.365Z,59.30
2023-02-22T07:16:41.397Z,60.11
2023-02-22T07:17:41.336Z,59.91
2023-02-22T07:18:41.337Z,59.45
2023-02-22T07:19:41.311Z,60.00
2023-02-22T07:20:41.306Z,60.17
2023-02-22T07:21:41.286Z,59.52
2023-02-22T07:22:41.282Z,59.64
2023-02-22T07:23:41.295Z,62.01
2023-02-22T07:24:41.272Z,63.21
2023-02-22T07:25:41.252Z,63.98
2023-02-22T07:26:41.249Z,64.65
2023-02-22T07:27:41.241Z,62.69
2023-02-22T07:28:41.246Z,60.56
2023-02-22T07:29:41.218Z,59.75
2023-02-22T07:30:41.226Z,65.61
2023-02-22T07:31:41.207Z,59.92
2023-02-22T07:32:41.294Z,60.55
2023-02-22T07:33:41.190Z,63.61
2023-02-22T07:34:41.159Z,59.08
2023-02-22T07:35:41.184Z,59.82
2023-02-22T07:36:41.144Z,66.41
2023-02-22T07:37:41.130Z,59.82
2023-02-22T07:38:41.128Z,59.88
2023-02-22T07:39:41.129Z,61.44
2023-02-22T07:40:41.109Z,61.77
2023-02-22T07:41:41.094Z,60.55
2023-02-22T07:42:41.076Z,62.85
2023-02-22T07:43:41.088Z,60.90
2023-02-22T07:44:41.070Z,62.01
2023-02-22T07:45:41.068Z,61.81
2023-02-22T07:46:41.092Z,58.67
2023-02-22T07:47:41.036Z,65.58
2023-02-22T07:48:41.014Z,59.36
2023-02-22T07:49:41.007Z,61.07
2023-02-22T07:50:41.020Z,58.62
2023-02-22T07:51:40.990Z,55.82
2023-02-22T07:52:40.980Z,60.10
2023-02-22T07:53:40.989Z,59.69
2023-02-22T07:54:40.981Z,58.83
2023-02-22T07:55:40.957Z,58.76
2023-02-22T07:56:40.941Z,58.55
2023-02-22T07:57:40.946Z,57.65
2023-02-22T07:58:40.930Z,60.25
2023-02-22T07:59:40.939Z,58.71
2023-02-22T08:00:40.906Z,64.05
2023-02-22T08:01:40.895Z,59.66
2023-02-22T08:02:40.929Z,59.59
2023-02-22T08:03:40.925Z,58.49
2023-02-22T08:04:40.890Z,64.66
2023-02-22T08:05:40.852Z,58.96
2023-02-22T08:06:40.850Z,59.33
2023-02-22T08:07:40.837Z,57.59
2023-02-22T08:08:40.823Z,68.04
2023-02-22T08:09:40.879Z,59.86
2023-02-22T08:10:40.805Z,59.98
2023-02-22T08:11:41.794Z,66.46
2023-02-22T08:12:40.777Z,62.18
2023-02-22T08:13:40.781Z,59.53
2023-02-22T08:14:40.800Z,62.32
2023-02-22T08:15:40.775Z,61.78
2023-02-22T08:16:40.766Z,57.75
2023-02-22T08:17:40.746Z,58.36
2023-02-22T08:18:40.741Z,59.57
2023-02-22T08:19:40.713Z,63.79
2023-02-22T08:20:40.703Z,59.43
2023-02-22T08:21:40.706Z,59.90
2023-02-22T08:22:40.694Z,65.94
2023-02-22T08:23:40.718Z,59.64
2023-02-22T08:24:40.696Z,58.00
2023-02-22T08:25:40.651Z,59.03
2023-02-22T08:26:40.673Z,66.90
2023-02-22T08:27:40.635Z,58.37
2023-02-22T08:28:40.626Z,59.31
2023-02-22T08:29:40.658Z,58.91
2023-02-22T08:30:40.868Z,58.99
2023-02-22T08:31:40.645Z,62.99
2023-02-22T08:32:40.658Z,62.54
2023-02-22T08:33:40.571Z,59.66
2023-02-22T08:34:40.570Z,60.01
2023-02-22T08:35:40.564Z,58.50
2023-02-22T08:36:40.547Z,58.73
2023-02-22T08:37:40.552Z,59.72
2023-02-22T08:38:40.538Z,57.89
2023-02-22T08:39:40.520Z,61.27
2023-02-22T08:40:40.509Z,59.74
2023-02-22T08:41:40.528Z,59.68
2023-02-22T08:42:40.507Z,60.31
2023-02-22T08:43:40.518Z,66.50
2023-02-22T08:44:40.468Z,58.82
2023-02-22T08:45:40.485Z,61.98
2023-02-22T08:46:40.475Z,59.79
2023-02-22T08:47:40.462Z,58.77
2023-02-22T08:48:40.446Z,58.28
2023-02-22T08:49:40.423Z,64.36
2023-02-22T08:50:40.407Z,58.37
2023-02-22T08:51:40.392Z,60.25
2023-02-22T08:52:40.386Z,57.05
2023-02-22T08:53:40.386Z,58.60
2023-02-22T08:54:40.372Z,58.89
2023-02-22T08:55:40.402Z,60.61
2023-02-22T08:56:40.372Z,60.25
2023-02-22T08:57:40.342Z,61.58
2023-02-22T08:58:40.329Z,65.36
2023-02-22T08:59:40.326Z,60.78
2023-02-22T09:00:40.306Z,59.32
2023-02-22T09:01:40.412Z,69.57
2023-02-22T09:02:40.280Z,57.93
2023-02-22T09:03:40.337Z,57.32
2023-02-22T09:04:40.261Z,59.16
2023-02-22T09:05:40.274Z,57.83
2023-02-22T09:06:40.245Z,58.31
2023-02-22T09:07:40.288Z,57.66
2023-02-22T09:08:40.264Z,62.00
2023-02-22T09:09:40.222Z,59.41
2023-02-22T09:10:40.201Z,59.72
2023-02-22T09:11:40.189Z,60.17
2023-02-22T09:12:40.177Z,59.07
2023-02-22T09:13:40.196Z,63.93
2023-02-22T09:14:40.143Z,58.95
2023-02-22T09:15:40.168Z,58.19
2023-02-22T09:16:40.246Z,58.62
2023-02-22T09:17:40.136Z,56.96
2023-02-22T09:18:44.299Z,59.68
2023-02-22T09:19:41.126Z,59.34
2023-02-22T09:20:40.105Z,58.63
2023-02-22T09:21:40.149Z,58.98
2023-02-22T09:22:40.075Z,58.61
2023-02-22T09:23:40.062Z,57.80
2023-02-22T09:24:40.073Z,59.92
2023-02-22T09:25:40.046Z,68.29
2023-02-22T09:26:40.054Z,60.03
2023-02-22T09:27:40.031Z,57.86
2023-02-22T09:28:40.061Z,61.11
2023-02-22T09:29:40.045Z,60.70
2023-02-22T09:30:40.094Z,61.14
2023-02-22T09:31:40.102Z,60.64
2023-02-22T09:32:40.145Z,59.07
2023-02-22T09:33:39.989Z,58.16
2023-02-22T09:34:39.972Z,61.64
2023-02-22T09:35:39.947Z,62.53
2023-02-22T09:36:39.934Z,63.14
2023-02-22T09:37:39.979Z,62.10
2023-02-22T09:38:39.951Z,59.27
2023-02-22T09:39:39.944Z,61.06
2023-02-22T09:40:39.895Z,61.46
2023-02-22T09:41:39.906Z,62.89
2023-02-22T09:42:39.893Z,63.19
2023-02-22T09:43:39.896Z,60.87
2023-02-22T09:44:39.859Z,59.39
2023-02-22T09:45:39.845Z,60.24
2023-02-22T09:46:39.836Z,59.73
2023-02-22T09:47:39.856Z,59.25
2023-02-22T09:48:39.837Z,60.29
2023-02-22T09:49:39.827Z,58.52
2023-02-22T09:50:39.801Z,55.97
2023-02-22T09:51:39.796Z,59.18
2023-02-22T09:52:39.806Z,55.97
2023-02-22T09:53:39.759Z,58.99
2023-02-22T09:54:39.756Z,59.56
2023-02-22T09:56:11.666Z,59.30
2023-02-22T09:56:39.758Z,63.86
2023-02-22T09:57:39.756Z,65.83
2023-02-22T09:58:41.778Z,59.34
2023-02-22T09:59:40.726Z,59.82
2023-02-22T10:00:39.732Z,59.28
2023-02-22T10:01:39.708Z,58.95
2023-02-22T10:02:39.713Z,61.22
2023-02-22T10:03:39.741Z,61.99
2023-02-22T10:04:39.664Z,60.52
2023-02-22T10:05:39.759Z,59.76
2023-02-22T10:06:39.677Z,61.17
2023-02-22T10:07:39.659Z,57.85
2023-02-22T10:08:39.659Z,65.97
2023-02-22T10:09:39.632Z,59.95
2023-02-22T10:10:39.621Z,59.97
2023-02-22T10:11:39.611Z,58.54
2023-02-22T10:12:40.603Z,57.26
2023-02-22T10:13:39.588Z,58.47
2023-02-22T10:14:39.599Z,60.47
2023-02-22T10:15:39.587Z,60.97
2023-02-22T10:16:39.603Z,57.84
2023-02-22T10:17:39.539Z,58.26
2023-02-22T10:18:39.546Z,59.19
2023-02-22T10:19:39.559Z,58.05
2023-02-22T10:20:39.567Z,58.11
2023-02-22T10:21:39.530Z,60.41
2023-02-22T10:22:39.553Z,59.88
2023-02-22T10:23:39.530Z,60.28
2023-02-22T10:24:39.512Z,57.53
2023-02-22T10:25:39.548Z,59.26
2023-02-22T10:26:39.467Z,62.57
2023-02-22T10:27:39.482Z,62.43
2023-02-22T10:28:39.444Z,60.67
2023-02-22T10:29:39.471Z,59.50
2023-02-22T10:30:39.494Z,58.99
2023-02-22T10:31:39.526Z,58.19
2023-02-22T10:32:39.428Z,58.33
2023-02-22T10:33:39.414Z,57.29
2023-02-22T10:34:39.391Z,60.42
2023-02-22T10:35:39.380Z,64.57
2023-02-22T10:36:39.393Z,59.53
2023-02-22T10:37:39.415Z,59.47
2023-02-22T10:38:39.343Z,58.82
2023-02-22T10:39:39.357Z,58.95
2023-02-22T10:40:39.347Z,60.55
2023-02-22T10:41:39.324Z,65.58
2023-02-22T10:42:39.382Z,59.88
2023-02-22T10:43:39.322Z,59.74
2023-02-22T10:44:39.309Z,59.60
2023-02-22T10:45:39.353Z,59.77
2023-02-22T10:46:39.292Z,60.31
2023-02-22T10:47:39.253Z,62.11
2023-02-22T10:48:39.276Z,60.22
2023-02-22T10:49:39.222Z,59.78
2023-02-22T10:50:39.235Z,60.14
2023-02-22T10:51:39.276Z,58.17
2023-02-22T10:52:39.199Z,58.41
2023-02-22T10:53:39.210Z,58.44
2023-02-22T10:54:39.198Z,66.22
2023-02-22T10:55:39.224Z,59.65
2023-02-22T10:56:39.178Z,58.46
2023-02-22T10:57:39.182Z,60.23
2023-02-22T10:58:39.149Z,59.66
2023-02-22T10:59:39.136Z,60.32
2023-02-22T11:00:39.182Z,64.25
2023-02-22T11:01:39.161Z,57.62
2023-02-22T11:02:39.104Z,58.42
2023-02-22T11:03:39.105Z,58.55
2023-02-22T11:04:39.092Z,62.65
2023-02-22T11:05:39.072Z,59.82
2023-02-22T11:06:39.057Z,59.92
2023-02-22T11:07:39.037Z,61.38
2023-02-22T11:08:39.045Z,59.53
2023-02-22T11:09:39.022Z,60.14
2023-02-22T11:10:39.088Z,59.81
2023-02-22T11:11:39.014Z,59.45
2023-02-22T11:12:39.010Z,59.90
2023-02-22T11:13:39.021Z,60.52
2023-02-22T11:14:39.003Z,60.12
2023-02-22T11:15:38.983Z,67.10
2023-02-22T11:16:39.000Z,58.93
2023-02-22T11:17:38.959Z,59.32
2023-02-22T11:18:38.976Z,60.75
2023-02-22T11:19:38.956Z,66.58
2023-02-22T11:20:38.927Z,59.59
2023-02-22T11:21:38.989Z,60.25
2023-02-22T11:22:38.922Z,59.03
2023-02-22T11:23:38.930Z,61.55
2023-02-22T11:24:48.679Z,59.37
2023-02-22T11:25:39.874Z,59.80
2023-02-22T11:26:38.850Z,58.77
2023-02-22T11:27:38.883Z,61.17
2023-02-22T11:28:38.894Z,63.04
2023-02-22T11:29:38.855Z,59.74
2023-02-22T11:30:38.940Z,59.68
2023-02-22T11:31:38.929Z,58.81
2023-02-22T11:32:38.871Z,57.83
2023-02-22T11:33:38.820Z,58.52
2023-02-22T11:34:38.807Z,57.78
2023-02-22T11:35:38.784Z,59.59
2023-02-22T11:36:38.761Z,59.52
2023-02-22T11:37:38.787Z,58.70
2023-02-22T11:38:38.731Z,58.62
2023-02-22T11:39:38.836Z,57.09
2023-02-22T11:40:38.752Z,58.52
2023-02-22T11:41:38.744Z,59.04
2023-02-22T11:42:38.709Z,64.77
2023-02-22T11:43:38.706Z,59.59
2023-02-22T11:44:38.690Z,59.35
2023-02-22T11:45:44.153Z,65.94
2023-02-22T11:46:40.683Z,67.00
2023-02-22T11:47:38.648Z,59.56
2023-02-22T11:48:38.649Z,60.87
2023-02-22T11:49:38.663Z,60.51
2023-02-22T11:50:50.585Z,61.60
2023-02-22T11:51:41.650Z,60.47
2023-02-22T11:52:38.616Z,59.60
2023-02-22T11:53:38.607Z,56.66
2023-02-22T11:54:38.578Z,58.63
2023-02-22T11:55:43.284Z,56.72
2023-02-22T11:56:40.069Z,57.15
2023-02-22T11:57:38.563Z,56.68
2023-02-22T11:58:38.538Z,57.32
2023-02-22T11:59:38.577Z,63.99
2023-02-22T12:00:38.531Z,57.03
2023-02-22T12:01:38.561Z,58.13
2023-02-22T12:02:41.682Z,57.36
2023-02-22T12:03:39.526Z,60.35
2023-02-22T12:04:39.888Z,57.79
2023-02-22T12:05:38.462Z,58.61
2023-02-22T12:06:38.463Z,57.60
2023-02-22T12:07:38.469Z,57.20
2023-02-22T12:08:38.469Z,57.77
2023-02-22T12:09:38.446Z,60.93
2023-02-22T12:10:38.423Z,58.11
2023-02-22T12:11:38.401Z,64.73
2023-02-22T12:12:38.418Z,58.12
2023-02-22T12:13:38.384Z,56.49
2023-02-22T12:14:38.415Z,58.33
2023-02-22T12:15:38.437Z,58.80
2023-02-22T12:17:10.655Z,57.56
2023-02-22T12:17:58.070Z,57.19
2023-02-22T12:18:39.337Z,58.86
2023-02-22T12:19:39.378Z,57.28
2023-02-22T12:20:38.330Z,55.80
2023-02-22T12:21:38.331Z,57.53
2023-02-22T12:22:38.299Z,57.09
2023-02-22T12:23:38.290Z,57.33
2023-02-22T12:24:38.322Z,58.25
2023-02-22T12:25:38.264Z,56.69
2023-02-22T12:26:38.254Z,58.20
2023-02-22T12:27:38.261Z,59.09
2023-02-22T12:28:38.308Z,58.02
2023-02-22T12:29:38.266Z,58.39
2023-02-22T12:30:38.257Z,58.31
2023-02-22T12:31:38.352Z,57.09
2023-02-22T12:32:38.265Z,58.39
2023-02-22T12:33:38.244Z,58.37
2023-02-22T12:34:38.404Z,64.20
2023-02-22T12:35:38.183Z,68.09
2023-02-22T12:36:39.165Z,60.24
2023-02-22T12:37:38.163Z,64.94
2023-02-22T12:38:38.156Z,59.59
2023-02-22T12:39:51.784Z,58.48
2023-02-22T12:40:39.174Z,57.45
2023-02-22T12:41:38.154Z,56.84
2023-02-22T12:42:38.129Z,60.43
2023-02-22T12:43:38.136Z,58.49
2023-02-22T12:44:38.120Z,58.01
2023-02-22T12:45:38.059Z,58.05
2023-02-22T12:46:38.207Z,60.85
2023-02-22T12:47:38.062Z,57.13
2023-02-22T12:48:38.064Z,58.33
2023-02-22T12:49:38.053Z,56.56
2023-02-22T12:50:38.051Z,65.80
2023-02-22T12:51:38.034Z,58.65
2023-02-22T12:52:38.031Z,57.67